Time;durP1;ratioP1;P1;durP2;ratioP2;P2;SDS_P1;SDS_P2;PMS_P1;PMS_P2;Temp;Humidity;BMP_temperature;BMP_pressure;BME280_temperature;BME280_humidity;BME280_pressure;Samples;Min_cycle;Max_cycle;Signal;HPM_P1;HPM_P2
2023/03/22 00:01:15;;;;;;;12.70;6.10;;;9.10;99.90;;;;;;5077611;28;20049;-74
2023/03/22 00:03:41;;;;;;;9.90;6.60;;;9.10;99.90;;;;;;5077740;28;20157;-74
2023/03/22 00:06:08;;;;;;;11.88;6.03;;;9.10;99.90;;;;;;5095618;28;20054;-73
2023/03/22 00:08:34;;;;;;;10.68;5.97;;;9.10;99.90;;;;;;5095967;28;20020;-74
2023/03/22 00:11:00;;;;;;;11.10;6.05;;;9.10;99.90;;;;;;5095877;28;20471;-74
2023/03/22 00:13:25;;;;;;;13.45;6.57;;;9.10;99.90;;;;;;5077649;28;20114;-74
2023/03/22 00:15:51;;;;;;;12.15;7.03;;;9.10;99.90;;;;;;5077839;28;20189;-74
2023/03/22 00:18:18;;;;;;;14.02;6.78;;;9.10;99.90;;;;;;5078328;28;20028;-74
2023/03/22 00:20:52;;;;;;;13.20;7.05;;;9.00;99.90;;;;;;5096183;28;20047;-74
2023/03/22 00:23:18;;;;;;;16.00;7.03;;;9.00;99.90;;;;;;5096797;28;20046;-74
2023/03/22 00:25:44;;;;;;;12.60;7.35;;;9.00;99.90;;;;;;5095799;28;20527;-73
2023/03/22 00:28:11;;;;;;;13.05;6.93;;;9.00;99.90;;;;;;5095955;28;20056;-74
2023/03/22 00:30:36;;;;;;;15.18;7.38;;;9.00;99.90;;;;;;5077085;28;20028;-74
2023/03/22 00:33:02;;;;;;;14.82;8.13;;;9.00;99.90;;;;;;5077205;28;20036;-74
2023/03/22 00:35:28;;;;;;;13.07;7.25;;;9.00;99.90;;;;;;5095385;28;20032;-74
2023/03/22 00:37:54;;;;;;;12.60;6.57;;;9.00;99.90;;;;;;5077307;28;20024;-74
2023/03/22 00:40:20;;;;;;;12.88;6.93;;;8.90;99.90;;;;;;5076875;28;20031;-74
2023/03/22 00:42:46;;;;;;;11.27;6.40;;;8.90;99.90;;;;;;5094965;28;20032;-74
2023/03/22 00:45:12;;;;;;;8.73;6.00;;;8.90;99.90;;;;;;5095112;28;20060;-74
2023/03/22 00:47:38;;;;;;;11.65;6.57;;;8.90;99.90;;;;;;5095650;28;20028;-74
2023/03/22 00:50:06;;;;;;;13.73;6.35;;;8.90;99.90;;;;;;5094942;28;20020;-73
2023/03/22 00:52:32;;;;;;;10.80;5.77;;;8.90;99.90;;;;;;5095584;28;20074;-74
2023/03/22 00:54:58;;;;;;;12.00;6.20;;;8.90;99.90;;;;;;5078420;28;20024;-74
2023/03/22 00:57:23;;;;;;;9.50;6.63;;;8.90;99.90;;;;;;5078313;28;20095;-74
2023/03/22 00:59:51;;;;;;;10.10;5.60;;;8.90;99.90;;;;;;5078374;28;20057;-74
2023/03/22 01:02:17;;;;;;;11.85;6.03;;;8.90;99.90;;;;;;5095667;28;20027;-74
2023/03/22 01:04:47;;;;;;;9.43;5.45;;;8.90;99.90;;;;;;5077802;28;20027;-74
2023/03/22 01:07:20;;;;;;;9.30;5.70;;;8.90;99.90;;;;;;5077645;28;20028;-74
2023/03/22 01:09:47;;;;;;;12.70;6.10;;;8.90;99.90;;;;;;5077573;28;20028;-74
2023/03/22 01:12:13;;;;;;;9.40;5.97;;;8.90;99.90;;;;;;5077054;28;20043;-74
2023/03/22 01:14:39;;;;;;;12.65;6.20;;;9.00;99.90;;;;;;5095355;28;20024;-74
2023/03/22 01:17:06;;;;;;;9.88;6.18;;;9.00;99.90;;;;;;5077127;28;20180;-74
2023/03/22 01:19:32;;;;;;;10.95;6.43;;;9.00;99.90;;;;;;5076962;28;20025;-74
2023/03/22 01:21:58;;;;;;;8.70;5.50;;;8.90;99.90;;;;;;5076803;28;20082;-74
2023/03/22 01:24:24;;;;;;;8.00;5.55;;;8.90;99.90;;;;;;5094988;28;20463;-74
2023/03/22 01:26:50;;;;;;;10.50;6.60;;;8.90;99.90;;;;;;5094911;28;20443;-74
2023/03/22 01:29:15;;;;;;;8.88;5.70;;;8.90;99.90;;;;;;5076402;28;20035;-73
2023/03/22 01:31:41;;;;;;;7.55;5.32;;;8.90;99.90;;;;;;5076608;28;20131;-74
2023/03/22 01:34:07;;;;;;;9.15;6.07;;;8.90;99.90;;;;;;5076135;28;20028;-74
2023/03/22 01:36:33;;;;;;;8.85;5.35;;;8.90;99.90;;;;;;5076547;28;20024;-74
2023/03/22 01:38:59;;;;;;;9.48;5.65;;;8.90;99.90;;;;;;5094104;28;20103;-74
2023/03/22 01:41:25;;;;;;;7.82;4.88;;;8.90;99.90;;;;;;5076144;28;20387;-74
2023/03/22 01:44:12;;;;;;;8.88;5.85;;;8.90;99.90;;;;;;5094279;28;20032;-74
2023/03/22 01:46:39;;;;;;;10.93;5.85;;;8.90;99.90;;;;;;5076758;28;20369;-74
2023/03/22 01:49:30;;;;;;;8.10;5.05;;;8.90;99.90;;;;;;5094110;28;20078;-74
2023/03/22 01:52:00;;;;;;;9.70;4.93;;;8.90;99.90;;;;;;5067547;28;20048;-73
2023/03/22 01:54:46;;;;;;;9.38;5.32;;;8.90;99.90;;;;;;5094148;28;20035;-73
2023/03/22 01:57:12;;;;;;;10.32;5.18;;;8.90;99.90;;;;;;5094389;28;20024;-73
2023/03/22 01:59:40;;;;;;;8.13;4.95;;;8.90;99.90;;;;;;5075522;28;20024;-73
2023/03/22 02:02:06;;;;;;;9.25;5.13;;;8.90;99.90;;;;;;5093717;28;20032;-74
2023/03/22 02:04:38;;;;;;;8.82;5.55;;;8.90;99.90;;;;;;5094078;28;20029;-74
2023/03/22 02:07:14;;;;;;;9.35;5.30;;;8.90;99.90;;;;;;5094150;28;20028;-74
2023/03/22 02:09:41;;;;;;;10.80;5.85;;;8.90;99.90;;;;;;5075850;28;20077;-74
2023/03/22 02:12:25;;;;;;;7.45;5.00;;;8.90;99.90;;;;;;5093791;28;20040;-74
2023/03/22 02:14:57;;;;;;;6.57;5.07;;;8.90;99.90;;;;;;5079739;28;20055;-74
2023/03/22 02:17:32;;;;;;;6.32;4.78;;;8.90;99.90;;;;;;5097610;28;20051;-74
2023/03/22 02:20:11;;;;;;;7.30;4.70;;;8.90;99.90;;;;;;5097528;28;20541;-74
2023/03/22 02:23:07;;;;;;;7.28;5.03;;;8.90;99.90;;;;;;5079601;28;20379;-74
2023/03/22 02:25:57;;;;;;;11.50;5.13;;;9.00;99.90;;;;;;5097637;28;20112;-73
2023/03/22 02:28:54;;;;;;;6.70;4.72;;;9.00;99.90;;;;;;5097338;28;20037;-74
2023/03/22 02:31:26;;;;;;;10.75;5.28;;;9.00;99.90;;;;;;5078190;28;20050;-74
2023/03/22 02:33:52;;;;;;;6.78;4.55;;;9.00;99.90;;;;;;5079653;28;20387;-74
2023/03/22 02:36:31;;;;;;;7.63;4.72;;;9.00;99.90;;;;;;5097370;28;20020;-73
2023/03/22 02:39:19;;;;;;;7.70;5.00;;;9.00;99.90;;;;;;5079742;28;20024;-74
2023/03/22 02:41:59;;;;;;;9.55;5.60;;;8.90;99.90;;;;;;5096137;28;20380;-73
2023/03/22 02:44:44;;;;;;;8.52;5.22;;;9.00;99.90;;;;;;5078823;28;20024;-74
2023/03/22 02:47:34;;;;;;;9.68;4.85;;;9.00;99.90;;;;;;5079128;28;20032;-73
2023/03/22 02:50:26;;;;;;;10.32;4.70;;;9.00;99.90;;;;;;5097542;28;20028;-74
2023/03/22 02:53:02;;;;;;;9.18;4.82;;;9.00;99.90;;;;;;5097706;28;20083;-74
2023/03/22 02:55:46;;;;;;;8.75;4.80;;;8.90;99.90;;;;;;5078980;28;20571;-74
2023/03/22 02:58:38;;;;;;;8.55;4.53;;;9.00;99.90;;;;;;5096089;28;20062;-73
2023/03/22 03:01:10;;;;;;;7.75;4.45;;;9.00;99.90;;;;;;5070250;28;20509;-74
2023/03/22 03:03:38;;;;;;;6.20;4.70;;;9.00;99.90;;;;;;5079128;28;20479;-74
2023/03/22 03:06:15;;;;;;;8.50;5.77;;;9.00;99.90;;;;;;5097168;28;20119;-74
2023/03/22 03:08:42;;;;;;;6.72;4.38;;;9.00;99.90;;;;;;5078880;28;20131;-74
2023/03/22 03:11:08;;;;;;;7.18;4.05;;;9.00;99.90;;;;;;5078787;28;20115;-74
2023/03/22 03:13:34;;;;;;;6.68;4.75;;;8.90;99.90;;;;;;5096803;28;20106;-74
2023/03/22 03:16:06;;;;;;;8.55;4.32;;;8.90;99.90;;;;;;5078336;28;20428;-74
2023/03/22 03:18:45;;;;;;;9.50;4.72;;;8.90;99.90;;;;;;5078882;28;20105;-74
2023/03/22 03:21:31;;;;;;;8.75;4.32;;;8.90;99.90;;;;;;5078695;28;20110;-74
2023/03/22 03:24:06;;;;;;;9.43;4.43;;;8.90;99.90;;;;;;5078191;28;20062;-74
2023/03/22 03:26:56;;;;;;;6.07;4.35;;;8.90;99.90;;;;;;5096481;28;20452;-74
2023/03/22 03:29:24;;;;;;;6.50;3.38;;;8.90;99.90;;;;;;5078367;28;20545;-74
2023/03/22 03:32:09;;;;;;;7.68;3.67;;;8.90;99.90;;;;;;5096478;28;20042;-74
2023/03/22 03:34:59;;;;;;;7.55;3.70;;;8.90;99.90;;;;;;5078233;28;20201;-74
2023/03/22 03:37:32;;;;;;;8.02;4.60;;;8.90;99.90;;;;;;5095018;28;20020;-74
2023/03/22 03:40:05;;;;;;;6.18;4.45;;;8.90;99.90;;;;;;5096018;28;20020;-74
2023/03/22 03:42:31;;;;;;;6.68;4.40;;;8.90;99.90;;;;;;5078082;28;20024;-74
2023/03/22 03:44:58;;;;;;;7.13;4.40;;;8.90;99.90;;;;;;5096327;28;20031;-74
2023/03/22 03:47:27;;;;;;;5.00;3.78;;;8.80;99.90;;;;;;5095197;28;20474;-74
2023/03/22 03:49:52;;;;;;;5.15;3.92;;;8.80;99.90;;;;;;5077987;28;20031;-74
2023/03/22 03:52:18;;;;;;;4.93;4.13;;;8.80;99.90;;;;;;5096427;28;20571;-74
2023/03/22 03:54:44;;;;;;;4.72;3.75;;;8.80;99.90;;;;;;5096296;28;20103;-74
2023/03/22 03:57:10;;;;;;;6.35;3.88;;;8.80;99.90;;;;;;5095998;28;20059;-74
2023/03/22 03:59:36;;;;;;;7.00;3.60;;;8.80;99.90;;;;;;5095975;28;20077;-74
2023/03/22 04:02:02;;;;;;;5.38;4.18;;;8.80;99.90;;;;;;5078032;28;20031;-74
2023/03/22 04:04:28;;;;;;;6.00;3.95;;;8.80;99.90;;;;;;5095858;28;20031;-73
2023/03/22 04:06:59;;;;;;;8.65;4.10;;;8.80;99.90;;;;;;5095506;28;20353;-73
2023/03/22 04:09:27;;;;;;;4.72;3.42;;;8.80;99.90;;;;;;5094745;28;20030;-73
2023/03/22 04:11:54;;;;;;;8.20;3.22;;;8.80;99.90;;;;;;5077095;28;20032;-74
2023/03/22 04:14:21;;;;;;;6.00;3.65;;;8.80;99.90;;;;;;5077389;28;20491;-74
2023/03/22 04:16:47;;;;;;;4.28;3.53;;;8.80;99.90;;;;;;5077358;28;20035;-73
2023/03/22 04:19:13;;;;;;;8.45;4.32;;;8.80;99.90;;;;;;5077814;28;20024;-73
2023/03/22 04:21:38;;;;;;;4.55;3.40;;;8.80;99.90;;;;;;5077319;28;20598;-74
2023/03/22 04:24:05;;;;;;;6.05;3.30;;;8.80;99.90;;;;;;5077456;28;20028;-74
2023/03/22 04:26:31;;;;;;;5.22;3.50;;;8.80;99.90;;;;;;5095931;28;20031;-74
2023/03/22 04:29:01;;;;;;;10.65;3.92;;;8.80;99.90;;;;;;5078115;28;20028;-74
2023/03/22 04:31:28;;;;;;;5.07;3.78;;;8.80;99.90;;;;;;5096716;28;20051;-74
2023/03/22 04:33:54;;;;;;;8.07;4.15;;;8.80;99.90;;;;;;5095286;28;20161;-74
2023/03/22 04:36:21;;;;;;;7.88;3.70;;;8.80;99.90;;;;;;5077338;28;20114;-74
2023/03/22 04:38:46;;;;;;;13.23;3.90;;;8.80;99.90;;;;;;5078190;28;20020;-74
2023/03/22 04:41:12;;;;;;;4.70;3.75;;;8.80;99.90;;;;;;5095922;28;20027;-74
2023/03/22 04:43:38;;;;;;;6.38;4.25;;;8.80;99.90;;;;;;5077872;28;20034;-74
2023/03/22 04:46:11;;;;;;;3.92;3.50;;;8.80;99.90;;;;;;5077625;28;20050;-74
2023/03/22 04:48:38;;;;;;;5.97;3.92;;;8.80;99.90;;;;;;5094111;28;20463;-74
2023/03/22 04:51:09;;;;;;;7.55;4.90;;;8.80;99.90;;;;;;5095000;28;20050;-74
2023/03/22 04:53:38;;;;;;;4.95;3.47;;;8.80;99.90;;;;;;5095251;28;20028;-74
2023/03/22 04:56:10;;;;;;;7.28;3.88;;;8.80;99.90;;;;;;5077067;28;20356;-74
2023/03/22 04:58:38;;;;;;;7.93;4.38;;;8.80;99.90;;;;;;5094231;28;20030;-74
2023/03/22 05:01:05;;;;;;;5.95;4.28;;;8.80;99.90;;;;;;5076972;28;20028;-73
2023/03/22 05:03:31;;;;;;;5.32;4.13;;;8.90;99.90;;;;;;5095532;28;20028;-73
2023/03/22 05:05:59;;;;;;;7.45;4.00;;;8.90;99.90;;;;;;5094657;28;20024;-73
2023/03/22 05:08:27;;;;;;;8.25;3.85;;;8.90;99.90;;;;;;5078774;28;20024;-74
2023/03/22 05:10:54;;;;;;;5.82;3.45;;;8.90;99.90;;;;;;5098204;28;20032;-73
2023/03/22 05:13:21;;;;;;;6.15;3.90;;;8.90;99.90;;;;;;5097420;28;20124;-73
2023/03/22 05:15:48;;;;;;;7.53;3.67;;;8.90;99.90;;;;;;5078551;28;20024;-72
2023/03/22 05:18:23;;;;;;;6.93;3.90;;;9.00;99.90;;;;;;5077832;28;20028;-72
2023/03/22 05:20:49;;;;;;;7.95;4.20;;;9.00;99.90;;;;;;5094438;28;20029;-73
2023/03/22 05:23:19;;;;;;;9.20;4.50;;;9.00;99.90;;;;;;5078156;28;20139;-72
2023/03/22 05:25:46;;;;;;;7.70;4.20;;;9.00;99.90;;;;;;5095494;28;20414;-72
2023/03/22 05:28:13;;;;;;;5.25;3.92;;;9.10;99.90;;;;;;5076678;28;20024;-72
2023/03/22 05:30:42;;;;;;;8.48;4.50;;;9.10;99.90;;;;;;5093589;28;20032;-71
2023/03/22 05:33:08;;;;;;;10.50;5.05;;;9.10;99.90;;;;;;5076143;28;20032;-71
2023/03/22 05:35:36;;;;;;;8.85;4.70;;;9.10;99.90;;;;;;5093347;28;20034;-71
2023/03/22 05:38:03;;;;;;;7.65;5.25;;;9.10;99.90;;;;;;5076163;28;20028;-71
2023/03/22 05:40:29;;;;;;;10.45;5.38;;;9.20;99.90;;;;;;5076040;28;20456;-71
2023/03/22 05:42:55;;;;;;;8.32;4.93;;;9.30;99.90;;;;;;5094267;28;20024;-72
2023/03/22 05:45:21;;;;;;;6.97;4.53;;;9.30;99.90;;;;;;5076156;28;20070;-73
2023/03/22 05:47:47;;;;;;;6.97;5.38;;;9.50;99.90;;;;;;5075929;28;20024;-72
2023/03/22 05:50:16;;;;;;;16.00;5.60;;;9.60;99.90;;;;;;5094231;28;20070;-72
2023/03/22 05:52:43;;;;;;;9.85;4.75;;;9.70;99.90;;;;;;5093616;28;20138;-71
2023/03/22 05:55:11;;;;;;;7.88;5.13;;;9.80;99.90;;;;;;5093933;28;20039;-72
2023/03/22 05:57:37;;;;;;;7.80;5.07;;;9.90;99.90;;;;;;5092703;28;20027;-72
2023/03/22 06:00:06;;;;;;;9.20;5.32;;;10.00;99.90;;;;;;5092639;28;20031;-72
2023/03/22 06:02:33;;;;;;;10.80;5.70;;;10.10;99.90;;;;;;5093888;28;20024;-72
2023/03/22 06:04:58;;;;;;;12.90;6.15;;;10.30;99.90;;;;;;5093765;28;20038;-72
2023/03/22 06:07:25;;;;;;;10.75;5.72;;;10.40;99.90;;;;;;5075669;28;20123;-73
2023/03/22 06:09:50;;;;;;;9.48;5.15;;;10.50;99.90;;;;;;5094028;28;20028;-72
2023/03/22 06:12:16;;;;;;;11.05;5.32;;;10.70;99.90;;;;;;5093361;28;20042;-73
2023/03/22 06:14:42;;;;;;;10.77;5.18;;;10.80;99.90;;;;;;5093613;28;20107;-72
2023/03/22 06:17:08;;;;;;;13.18;5.45;;;11.00;99.90;;;;;;5075562;28;20052;-71
2023/03/22 06:19:34;;;;;;;10.35;5.10;;;11.10;99.90;;;;;;5093602;28;20031;-72
2023/03/22 06:21:59;;;;;;;12.98;4.97;;;11.20;99.90;;;;;;5093682;28;20032;-72
2023/03/22 06:24:25;;;;;;;8.63;5.80;;;11.30;99.90;;;;;;5075228;28;20028;-72
2023/03/22 06:26:51;;;;;;;9.50;5.57;;;11.40;99.90;;;;;;5093626;28;20028;-72
2023/03/22 06:29:16;;;;;;;12.85;6.18;;;11.50;99.90;;;;;;5093845;28;20031;-74
2023/03/22 06:31:42;;;;;;;9.25;6.30;;;11.60;99.90;;;;;;5093878;28;20032;-73
2023/03/22 06:34:08;;;;;;;8.65;5.60;;;11.70;99.90;;;;;;5093414;28;20027;-73
2023/03/22 06:36:33;;;;;;;8.45;6.57;;;11.90;99.90;;;;;;5093774;28;20035;-74
2023/03/22 06:39:01;;;;;;;7.88;5.85;;;12.00;99.90;;;;;;5093655;28;20032;-75
2023/03/22 06:41:27;;;;;;;9.07;6.28;;;12.10;99.90;;;;;;5093371;28;20052;-75
2023/03/22 06:43:52;;;;;;;12.25;6.15;;;12.20;99.90;;;;;;5075383;28;20117;-75
2023/03/22 06:46:18;;;;;;;15.15;7.20;;;12.30;99.90;;;;;;5075736;28;20032;-75
2023/03/22 06:48:44;;;;;;;15.27;7.10;;;12.50;99.90;;;;;;5075334;28;20443;-74
2023/03/22 06:51:09;;;;;;;11.98;6.00;;;12.60;99.90;;;;;;5092959;28;20476;-75
2023/03/22 06:53:35;;;;;;;11.85;6.25;;;12.60;99.90;;;;;;5075148;28;20468;-75
2023/03/22 06:56:01;;;;;;;9.60;6.25;;;12.70;99.90;;;;;;5075485;28;20024;-75
2023/03/22 06:58:26;;;;;;;8.43;5.55;;;12.80;99.90;;;;;;5093246;28;20031;-74
2023/03/22 07:00:55;;;;;;;11.40;5.60;;;12.90;99.90;;;;;;5096648;28;20021;-73
2023/03/22 07:03:21;;;;;;;8.38;5.45;;;13.10;99.90;;;;;;5078611;28;20082;-74
2023/03/22 07:05:47;;;;;;;8.32;6.03;;;13.30;99.90;;;;;;5078631;28;20436;-74
2023/03/22 07:08:12;;;;;;;11.27;5.82;;;13.70;99.90;;;;;;5096772;28;20031;-74
2023/03/22 07:10:38;;;;;;;7.75;5.28;;;13.90;99.90;;;;;;5097008;28;20035;-72
2023/03/22 07:13:04;;;;;;;6.38;5.68;;;14.20;99.90;;;;;;5096592;28;20066;-72
2023/03/22 07:15:31;;;;;;;6.13;5.25;;;14.50;99.90;;;;;;5096634;28;20028;-73
2023/03/22 07:17:59;;;;;;;9.90;5.38;;;14.70;99.90;;;;;;5078347;28;20302;-75
2023/03/22 07:20:25;;;;;;;7.75;4.57;;;15.30;99.10;;;;;;5096517;28;20032;-75
2023/03/22 07:22:51;;;;;;;7.32;5.07;;;16.40;97.00;;;;;;5078250;28;20024;-75
2023/03/22 07:25:17;;;;;;;5.68;4.88;;;17.50;92.90;;;;;;5078251;28;20028;-75
2023/03/22 07:27:43;;;;;;;7.32;4.20;;;17.90;88.80;;;;;;5096390;28;20475;-75
2023/03/22 07:30:09;;;;;;;8.45;4.68;;;18.60;83.40;;;;;;5096336;28;20107;-71
2023/03/22 07:32:35;;;;;;;5.70;4.40;;;19.50;76.70;;;;;;5095303;28;20039;-75
2023/03/22 07:35:00;;;;;;;7.85;4.85;;;19.30;74.00;;;;;;5096361;28;20371;-75
2023/03/22 07:37:26;;;;;;;5.25;4.40;;;18.90;72.90;;;;;;5096406;28;20035;-75
2023/03/22 07:39:52;;;;;;;6.13;4.47;;;18.40;73.40;;;;;;5095666;28;20078;-74
2023/03/22 07:42:17;;;;;;;8.63;5.50;;;17.90;74.90;;;;;;5077835;28;20441;-75
2023/03/22 07:44:45;;;;;;;5.55;4.90;;;17.40;76.90;;;;;;5095525;28;20024;-72
2023/03/22 07:47:11;;;;;;;6.65;4.63;;;17.00;78.80;;;;;;5077650;28;20030;-73
2023/03/22 07:49:37;;;;;;;5.38;4.30;;;16.80;79.90;;;;;;5096299;28;20028;-70
2023/03/22 07:52:03;;;;;;;6.13;4.70;;;16.70;81.10;;;;;;5095496;28;20048;-70
2023/03/22 07:54:29;;;;;;;6.65;4.43;;;16.60;81.70;;;;;;5077683;28;20476;-71
2023/03/22 07:56:54;;;;;;;8.85;4.43;;;16.50;82.10;;;;;;5077724;28;20065;-70
2023/03/22 07:59:21;;;;;;;7.25;4.15;;;16.50;83.50;;;;;;5096013;28;20023;-70
2023/03/22 08:01:47;;;;;;;5.68;4.25;;;16.50;82.60;;;;;;5095734;28;20298;-65
2023/03/22 08:04:12;;;;;;;6.28;4.75;;;16.60;82.40;;;;;;5095407;28;20130;-65
2023/03/22 08:06:39;;;;;;;11.35;5.40;;;16.80;81.40;;;;;;5077444;28;20111;-71
2023/03/22 08:09:07;;;;;;;10.25;4.18;;;16.90;80.80;;;;;;5078197;28;20028;-70
2023/03/22 08:11:33;;;;;;;6.57;4.03;;;17.00;80.50;;;;;;5095557;28;20070;-71
2023/03/22 08:13:59;;;;;;;14.10;4.60;;;17.10;79.30;;;;;;5095219;28;20032;-71
2023/03/22 08:16:25;;;;;;;7.78;4.32;;;17.00;79.40;;;;;;5095520;28;20031;-71
2023/03/22 08:18:51;;;;;;;5.82;4.68;;;17.20;78.80;;;;;;5095129;28;20483;-71
2023/03/22 08:21:16;;;;;;;6.60;4.28;;;17.30;77.80;;;;;;5095377;28;20028;-71
2023/03/22 08:23:42;;;;;;;6.75;4.03;;;17.50;76.70;;;;;;5095252;28;20023;-70
2023/03/22 08:26:09;;;;;;;7.07;4.50;;;17.70;75.80;;;;;;5095003;28;20082;-70
2023/03/22 08:28:35;;;;;;;6.40;4.05;;;18.20;74.40;;;;;;5095478;28;20024;-71
2023/03/22 08:31:00;;;;;;;4.82;3.90;;;18.40;72.30;;;;;;5095197;28;20417;-71
2023/03/22 08:33:27;;;;;;;6.38;3.92;;;18.20;72.50;;;;;;5095172;28;20037;-71
2023/03/22 08:36:03;;;;;;;6.72;3.85;;;18.60;71.70;;;;;;5077198;28;20028;-70
2023/03/22 08:38:29;;;;;;;5.93;4.03;;;19.10;70.40;;;;;;5077152;28;20124;-71
2023/03/22 08:40:55;;;;;;;7.00;3.97;;;19.60;67.40;;;;;;5077715;28;20111;-71
2023/03/22 08:43:20;;;;;;;4.75;4.25;;;19.90;65.80;;;;;;5095008;28;20466;-72
2023/03/22 08:45:46;;;;;;;3.78;3.35;;;20.00;64.90;;;;;;5094884;28;20383;-72
2023/03/22 08:48:12;;;;;;;4.85;4.15;;;20.50;64.30;;;;;;5094618;28;20024;-71
2023/03/22 08:50:38;;;;;;;4.90;3.92;;;20.90;62.40;;;;;;5094928;28;20016;-71
2023/03/22 08:53:04;;;;;;;5.47;4.00;;;21.40;59.80;;;;;;5076477;28;20489;-71
2023/03/22 08:55:30;;;;;;;9.40;4.38;;;22.00;58.00;;;;;;5076721;28;20057;-71
2023/03/22 08:57:57;;;;;;;7.90;3.80;;;22.80;56.10;;;;;;5094750;28;20479;-70
2023/03/22 09:00:24;;;;;;;4.35;3.80;;;23.40;54.20;;;;;;5094693;28;20020;-71
2023/03/22 09:02:50;;;;;;;5.60;4.13;;;23.80;51.30;;;;;;5076457;28;20024;-71
2023/03/22 09:05:15;;;;;;;6.28;4.07;;;23.90;49.40;;;;;;5076460;28;20069;-70
2023/03/22 09:07:41;;;;;;;7.70;4.20;;;24.20;49.00;;;;;;5094524;28;20024;-71
2023/03/22 09:10:08;;;;;;;5.53;4.35;;;24.40;47.90;;;;;;5076058;28;20024;-70
2023/03/22 09:12:34;;;;;;;8.80;4.22;;;24.20;46.80;;;;;;5094406;28;20036;-70
2023/03/22 09:14:59;;;;;;;4.10;3.20;;;24.20;47.10;;;;;;5076387;28;20479;-70
2023/03/22 09:17:26;;;;;;;5.55;4.65;;;24.20;46.80;;;;;;5094607;28;20016;-71
2023/03/22 09:19:51;;;;;;;4.35;3.95;;;23.30;47.60;;;;;;5076382;28;20024;-72
2023/03/22 09:22:17;;;;;;;3.40;3.15;;;22.10;49.30;;;;;;5075652;28;20423;-71
2023/03/22 09:24:43;;;;;;;4.90;3.90;;;21.50;50.90;;;;;;5076329;28;20054;-71
2023/03/22 09:27:08;;;;;;;6.57;3.80;;;21.60;51.90;;;;;;5094335;28;20028;-72
2023/03/22 09:29:34;;;;;;;5.70;3.42;;;22.20;50.90;;;;;;5076037;28;20028;-72
2023/03/22 09:32:00;;;;;;;5.10;3.50;;;22.50;50.40;;;;;;5094072;28;20036;-72
2023/03/22 09:34:26;;;;;;;6.45;3.60;;;22.90;49.60;;;;;;5094683;28;20361;-72
2023/03/22 09:36:52;;;;;;;3.47;2.95;;;22.90;48.70;;;;;;5093807;28;20099;-71
2023/03/22 09:39:18;;;;;;;3.97;2.63;;;22.70;49.10;;;;;;5094253;28;20112;-71
2023/03/22 09:41:54;;;;;;;7.05;3.25;;;22.80;49.00;;;;;;5075941;28;20063;-71
2023/03/22 09:44:28;;;;;;;3.65;2.85;;;23.40;47.40;;;;;;5076099;28;20024;-71
2023/03/22 09:46:58;;;;;;;3.75;2.25;;;23.60;47.00;;;;;;5092705;28;20054;-71
2023/03/22 09:49:29;;;;;;;4.82;2.90;;;24.00;45.50;;;;;;5094180;28;20028;-72
2023/03/22 09:51:55;;;;;;;9.05;2.33;;;24.30;45.30;;;;;;5093560;28;20083;-71
2023/03/22 09:54:37;;;;;;;5.25;2.33;;;24.80;44.70;;;;;;5093874;28;20515;-71
2023/03/22 09:57:21;;;;;;;1.88;1.48;;;24.60;44.30;;;;;;5092577;28;20056;-67
2023/03/22 09:59:46;;;;;;;4.82;2.05;;;24.40;43.80;;;;;;5075669;28;20024;-67
2023/03/22 10:02:38;;;;;;;2.08;1.40;;;24.00;44.30;;;;;;5094106;28;20427;-67
2023/03/22 10:05:09;;;;;;;2.60;1.92;;;23.40;45.10;;;;;;5093814;28;20032;-67
2023/03/22 10:07:38;;;;;;;2.47;2.05;;;23.40;45.10;;;;;;5093820;28;20028;-67
2023/03/22 10:10:19;;;;;;;3.38;2.17;;;23.00;45.30;;;;;;5075646;28;20024;-67
2023/03/22 10:12:59;;;;;;;5.45;1.77;;;22.40;46.50;;;;;;5075407;28;20040;-67
2023/03/22 10:15:41;;;;;;;1.35;1.20;;;22.50;47.20;;;;;;5093891;28;20031;-67
2023/03/22 10:18:23;;;;;;;6.18;1.90;;;23.00;46.20;;;;;;5093633;28;20040;-67
2023/03/22 10:21:00;;;;;;;3.03;1.10;;;23.90;44.90;;;;;;5075632;28;20028;-66
2023/03/22 10:23:33;;;;;;;2.47;1.23;;;24.90;43.10;;;;;;5093603;28;20028;-67
2023/03/22 10:26:01;;;;;;;2.08;1.17;;;25.90;41.40;;;;;;5093493;28;20070;-67
2023/03/22 10:28:39;;;;;;;1.60;1.05;;;26.30;40.60;;;;;;5093662;28;20032;-66
2023/03/22 10:31:09;;;;;;;1.70;1.30;;;26.90;39.90;;;;;;5093881;28;20036;-68
2023/03/22 10:33:40;;;;;;;1.70;1.00;;;27.40;38.30;;;;;;5093690;28;20036;-67
2023/03/22 10:36:12;;;;;;;1.45;1.27;;;26.80;38.40;;;;;;5097477;28;20463;-67
2023/03/22 10:38:45;;;;;;;7.15;1.55;;;26.40;39.30;;;;;;5095788;28;20024;-68
2023/03/22 10:41:15;;;;;;;2.50;1.10;;;26.10;39.00;;;;;;5097835;28;20103;-68
2023/03/22 10:43:42;;;;;;;1.52;0.73;;;26.30;39.20;;;;;;5097216;28;20107;-68
2023/03/22 10:46:23;;;;;;;1.10;0.88;;;26.80;38.90;;;;;;5097090;28;20024;-68
2023/03/22 10:48:51;;;;;;;11.38;1.20;;;27.40;37.60;;;;;;5097179;28;20032;-68
2023/03/22 10:51:26;;;;;;;1.92;1.20;;;28.00;36.80;;;;;;5096949;28;20074;-68
2023/03/22 10:53:54;;;;;;;2.58;1.17;;;28.60;35.80;;;;;;5097302;28;20047;-68
2023/03/22 10:56:20;;;;;;;1.42;1.15;;;28.70;35.30;;;;;;5097364;28;20085;-68
2023/03/22 10:58:47;;;;;;;1.92;1.27;;;27.80;35.30;;;;;;5078760;28;20111;-68
2023/03/22 11:01:23;;;;;;;1.98;1.40;;;26.90;36.10;;;;;;5078763;28;20062;-68
2023/03/22 11:03:51;;;;;;;1.58;1.10;;;26.40;37.20;;;;;;5078812;28;20047;-68
2023/03/22 11:06:23;;;;;;;5.00;1.60;;;26.20;37.20;;;;;;5096896;28;20367;-68
2023/03/22 11:08:48;;;;;;;1.20;1.08;;;26.00;37.30;;;;;;5096949;28;20036;-68
2023/03/22 11:11:26;;;;;;;2.63;0.90;;;26.80;36.80;;;;;;5078503;28;20020;-68
2023/03/22 11:14:00;;;;;;;2.60;1.10;;;27.20;36.80;;;;;;5096742;28;20028;-68
2023/03/22 11:16:27;;;;;;;2.80;1.13;;;26.90;36.20;;;;;;5096370;28;20020;-68
2023/03/22 11:18:54;;;;;;;1.45;1.20;;;27.10;35.90;;;;;;5077632;28;20032;-68
2023/03/22 11:21:24;;;;;;;2.90;1.48;;;26.90;35.90;;;;;;5096226;28;20101;-68
2023/03/22 11:23:59;;;;;;;3.10;1.23;;;26.40;36.20;;;;;;5096321;28;20051;-68
2023/03/22 11:26:34;;;;;;;1.20;1.10;;;26.50;36.80;;;;;;5078362;28;20058;-71
2023/03/22 11:29:16;;;;;;;1.17;1.08;;;26.80;34.90;;;;;;5096110;28;20551;-71
2023/03/22 11:31:59;;;;;;;1.52;1.30;;;26.60;34.70;;;;;;5077978;28;20024;-71
2023/03/22 11:34:27;;;;;;;1.88;1.30;;;26.20;35.30;;;;;;5095957;28;20032;-71
2023/03/22 11:36:57;;;;;;;0.90;0.75;;;26.10;35.20;;;;;;5096322;28;20081;-71
2023/03/22 11:39:27;;;;;;;1.17;0.90;;;26.50;35.90;;;;;;5096086;28;20468;-71
2023/03/22 11:41:56;;;;;;;2.15;1.10;;;27.40;35.00;;;;;;5096294;28;20036;-71
2023/03/22 11:44:25;;;;;;;1.50;0.80;;;28.60;33.90;;;;;;5095901;28;20071;-71
2023/03/22 11:47:00;;;;;;;2.90;1.45;;;28.60;32.70;;;;;;5077747;28;20400;-71
2023/03/22 11:49:42;;;;;;;1.15;0.70;;;28.60;33.10;;;;;;5077992;28;20509;-71
2023/03/22 11:52:11;;;;;;;4.03;0.85;;;29.50;32.30;;;;;;5077565;28;20075;-71
2023/03/22 11:54:41;;;;;;;1.50;1.40;;;29.70;32.00;;;;;;5095903;28;20024;-71
2023/03/22 11:57:13;;;;;;;1.58;1.17;;;29.50;32.30;;;;;;5095843;28;20027;-71
2023/03/22 11:59:47;;;;;;;3.83;1.17;;;29.60;32.30;;;;;;5078256;28;20024;-71
2023/03/22 12:02:19;;;;;;;1.50;0.98;;;29.90;31.40;;;;;;5077701;28;20456;-70
2023/03/22 12:04:48;;;;;;;1.80;1.02;;;29.70;31.80;;;;;;5094313;28;20078;-71
2023/03/22 12:07:18;;;;;;;3.15;1.63;;;29.90;31.90;;;;;;5095571;28;20021;-71
2023/03/22 12:10:13;;;;;;;2.15;0.90;;;30.20;32.00;;;;;;5077421;28;20024;-71
2023/03/22 12:12:45;;;;;;;2.47;1.30;;;30.70;31.10;;;;;;5069593;28;20040;-71
2023/03/22 12:15:11;;;;;;;2.67;1.67;;;31.00;30.70;;;;;;5095645;28;20020;-71
2023/03/22 12:17:57;;;;;;;3.97;1.30;;;30.90;30.50;;;;;;5095466;28;20073;-71
2023/03/22 12:20:58;;;;;;;2.05;1.65;;;30.60;30.80;;;;;;5096029;28;20088;-71
2023/03/22 12:23:35;;;;;;;1.58;1.40;;;31.00;30.20;;;;;;5095112;28;20379;-70
2023/03/22 12:26:16;;;;;;;1.02;0.90;;;30.60;29.60;;;;;;5077240;28;20028;-70
2023/03/22 12:29:13;;;;;;;1.23;1.13;;;30.30;29.80;;;;;;5076739;28;20115;-71
2023/03/22 12:31:52;;;;;;;1.58;0.98;;;29.50;30.30;;;;;;5094764;28;20399;-70
2023/03/22 12:34:24;;;;;;;0.85;0.85;;;29.30;30.40;;;;;;5095252;28;20020;-71
2023/03/22 12:36:54;;;;;;;3.08;1.25;;;29.20;30.30;;;;;;5095273;28;20024;-70
2023/03/22 12:39:32;;;;;;;1.73;1.00;;;28.70;30.50;;;;;;5076636;28;20077;-70
2023/03/22 12:42:20;;;;;;;1.27;1.17;;;29.20;30.90;;;;;;5095408;28;20032;-70
2023/03/22 12:44:49;;;;;;;1.58;1.40;;;29.00;30.90;;;;;;5094989;28;20434;-71
2023/03/22 12:47:33;;;;;;;;;;;29.00;30.70;;;;;;5094437;28;20028;-70
2023/03/22 12:50:10;;;;;;;2.58;1.30;;;29.10;31.10;;;;;;5076790;28;20352;-70
2023/03/22 12:52:46;;;;;;;5.10;1.80;;;28.90;30.60;;;;;;5076631;28;20135;-71
2023/03/22 12:55:34;;;;;;;1.20;1.10;;;28.30;30.70;;;;;;5095109;28;20456;-71
2023/03/22 12:58:00;;;;;;;2.33;0.95;;;28.00;30.90;;;;;;5075894;28;20495;-71
2023/03/22 13:00:43;;;;;;;3.55;1.20;;;28.10;31.20;;;;;;5093718;28;20575;-71
2023/03/22 13:03:16;;;;;;;0.73;0.73;;;26.90;31.70;;;;;;5094830;28;20357;-71
2023/03/22 13:05:43;;;;;;;1.30;0.80;;;27.40;32.40;;;;;;5076338;28;20024;-71